createdAt,value
2018-06-04T00:00:20.474Z,32.73
2018-06-04T00:02:49.333Z,27.40
2018-06-04T00:05:18.194Z,27.27
2018-06-04T00:07:47.025Z,25.90
2018-06-04T00:10:15.868Z,29.17
2018-06-04T00:12:44.702Z,26.97
2018-06-04T00:15:13.565Z,26.47
2018-06-04T00:17:42.394Z,28.93
2018-06-04T00:20:11.243Z,30.00
2018-06-04T00:22:40.074Z,31.13
2018-06-04T00:25:09.023Z,33.73
2018-06-04T00:27:37.855Z,33.57
2018-06-04T00:30:06.695Z,38.37
2018-06-04T00:32:35.538Z,39.43
2018-06-04T00:35:04.416Z,41.87
2018-06-04T00:37:33.288Z,43.33
2018-06-04T00:40:02.143Z,45.50
2018-06-04T00:42:30.959Z,47.40
2018-06-04T00:44:59.819Z,49.53
2018-06-04T00:47:28.639Z,60.12
2018-06-04T00:49:57.499Z,50.60
2018-06-04T00:52:26.333Z,62.75
2018-06-04T00:54:55.206Z,53.77
2018-06-04T00:57:24.022Z,54.50
2018-06-04T00:59:52.871Z,52.63
2018-06-04T01:02:21.688Z,52.93
2018-06-04T01:04:50.581Z,54.03
2018-06-04T01:07:19.425Z,53.87
2018-06-04T01:09:48.256Z,53.67
2018-06-04T01:12:17.088Z,53.20
2018-06-04T01:14:45.945Z,54.60
2018-06-04T01:17:14.785Z,54.50
2018-06-04T01:19:43.601Z,56.20
2018-06-04T01:22:12.460Z,55.90
2018-06-04T01:24:41.293Z,55.27
2018-06-04T01:27:10.149Z,55.23
2018-06-04T01:29:39.032Z,53.50
2018-06-04T01:32:07.879Z,55.50
2018-06-04T01:34:36.720Z,53.97
2018-06-04T01:37:05.563Z,52.27
2018-06-04T01:39:34.400Z,53.73
2018-06-04T01:42:03.273Z,54.47
2018-06-04T01:44:32.114Z,53.80
2018-06-04T01:47:00.968Z,54.30
2018-06-04T01:49:29.809Z,53.97
2018-06-04T01:51:58.706Z,53.83
2018-06-04T01:54:27.566Z,53.03
2018-06-04T01:56:56.461Z,52.63
2018-06-04T01:59:25.260Z,53.47
2018-06-04T02:01:54.132Z,53.33
2018-06-04T02:04:22.987Z,50.90
2018-06-04T02:06:51.822Z,53.60
2018-06-04T02:09:20.702Z,53.13
2018-06-04T02:11:49.558Z,51.70
2018-06-04T02:14:18.378Z,53.07
2018-06-04T02:16:47.302Z,52.97
2018-06-04T02:19:16.266Z,64.20
2018-06-04T02:21:45.122Z,53.27
2018-06-04T02:24:13.951Z,52.67
2018-06-04T02:26:42.814Z,53.63
2018-06-04T02:29:11.671Z,53.10
2018-06-04T02:31:40.535Z,54.57
2018-06-04T02:34:09.404Z,53.60
2018-06-04T02:36:38.284Z,54.07
2018-06-04T02:39:07.796Z,52.40
2018-06-04T02:41:36.665Z,54.77
2018-06-04T02:44:05.533Z,54.97
2018-06-04T02:46:34.398Z,53.70
2018-06-04T02:49:03.294Z,53.50
2018-06-04T02:51:32.124Z,52.33
2018-06-04T02:54:02.293Z,52.03
2018-06-04T02:56:31.153Z,53.03
2018-06-04T02:59:00.011Z,52.60
2018-06-04T03:01:28.856Z,51.60
2018-06-04T03:03:57.702Z,51.97
2018-06-04T03:06:26.567Z,50.23
2018-06-04T03:08:55.412Z,50.70
2018-06-04T03:11:24.252Z,48.27
2018-06-04T03:13:53.109Z,50.30
2018-06-04T03:16:21.954Z,50.67
2018-06-04T03:18:50.811Z,49.93
2018-06-04T03:21:19.646Z,52.30
2018-06-04T03:23:48.497Z,51.30
2018-06-04T03:26:17.342Z,51.83
2018-06-04T03:28:46.163Z,51.60
2018-06-04T03:31:15.027Z,51.57
2018-06-04T03:33:43.843Z,50.47
2018-06-04T03:36:12.696Z,53.20
2018-06-04T03:38:41.532Z,51.40
2018-06-04T03:41:10.370Z,48.13
2018-06-04T03:43:39.198Z,47.07
2018-06-04T03:46:08.066Z,45.43
2018-06-04T03:48:36.896Z,47.67
2018-06-04T03:51:05.733Z,48.03
2018-06-04T03:53:34.625Z,60.90
2018-06-04T03:56:03.458Z,50.37
2018-06-04T03:58:32.286Z,51.33
2018-06-04T04:01:01.098Z,47.43
2018-06-04T04:03:29.948Z,46.33
2018-06-04T04:05:58.766Z,47.47
2018-06-04T04:08:27.617Z,47.33
2018-06-04T04:10:56.432Z,48.47
2018-06-04T04:13:25.404Z,57.27
2018-06-04T04:15:54.235Z,49.87
2018-06-04T04:18:23.077Z,49.17
2018-06-04T04:20:51.915Z,49.80
2018-06-04T04:23:20.742Z,60.35
2018-06-04T04:25:49.613Z,51.17
2018-06-04T04:28:18.437Z,49.53
2018-06-04T04:30:47.291Z,50.57
2018-06-04T04:33:16.102Z,53.50
2018-06-04T04:35:44.970Z,51.37
2018-06-04T04:38:13.982Z,50.47
2018-06-04T04:40:42.787Z,51.20
2018-06-04T04:43:11.650Z,51.47
2018-06-04T04:45:40.538Z,51.17
2018-06-04T04:48:09.394Z,48.40
2018-06-04T04:50:38.224Z,49.90
2018-06-04T04:53:07.055Z,46.30
2018-06-04T04:55:35.905Z,47.27
2018-06-04T04:58:04.793Z,47.20
2018-06-04T05:00:33.604Z,48.47
2018-06-04T05:03:02.492Z,47.40
2018-06-04T05:05:31.347Z,57.67
2018-06-04T05:08:00.212Z,59.77
2018-06-04T05:10:29.059Z,51.03
2018-06-04T05:12:57.876Z,47.00
2018-06-04T05:15:26.732Z,46.80
2018-06-04T05:17:55.651Z,48.23
2018-06-04T05:20:24.538Z,49.27
2018-06-04T05:22:53.372Z,50.03
2018-06-04T05:25:22.218Z,47.43
2018-06-04T05:27:51.167Z,46.90
2018-06-04T05:30:20.058Z,45.80
2018-06-04T05:32:48.892Z,45.70
2018-06-04T05:35:17.773Z,46.47
2018-06-04T05:37:46.660Z,44.47
2018-06-04T05:40:15.519Z,44.13
2018-06-04T05:42:44.383Z,41.47
2018-06-04T05:45:13.232Z,42.33
2018-06-04T05:47:42.085Z,40.73
2018-06-04T05:50:10.920Z,41.23
2018-06-04T05:52:39.808Z,42.57
2018-06-04T05:55:08.688Z,39.50
2018-06-04T05:57:37.542Z,38.20
2018-06-04T06:00:06.372Z,40.67
2018-06-04T06:02:35.267Z,40.37
2018-06-04T06:05:04.107Z,39.83
2018-06-04T06:07:32.947Z,37.43
2018-06-04T06:10:01.829Z,38.63
2018-06-04T06:12:30.711Z,41.10
2018-06-04T06:14:59.530Z,40.87
2018-06-04T06:17:28.373Z,42.40
2018-06-04T06:19:57.239Z,40.73
2018-06-04T06:22:26.074Z,47.23
2018-06-04T06:24:54.928Z,38.53
2018-06-04T06:27:23.750Z,45.67
2018-06-04T06:29:52.608Z,40.57
2018-06-04T06:32:21.443Z,39.57
2018-06-04T06:34:50.321Z,40.40
2018-06-04T06:37:19.162Z,39.70
2018-06-04T06:39:47.994Z,40.27
2018-06-04T06:42:16.890Z,38.73
2018-06-04T06:44:45.737Z,40.07
2018-06-04T06:47:14.681Z,41.07
2018-06-04T06:49:43.541Z,37.60
2018-06-04T06:52:12.473Z,41.73
2018-06-04T06:54:41.368Z,49.45
2018-06-04T06:57:10.252Z,42.03
2018-06-04T06:59:39.127Z,45.20
2018-06-04T07:02:08.012Z,45.60
2018-06-04T07:04:36.900Z,44.47
2018-06-04T07:07:05.876Z,44.03
2018-06-04T07:09:34.847Z,44.20
2018-06-04T07:12:03.732Z,43.37
2018-06-04T07:14:32.669Z,41.77
2018-06-04T07:17:01.539Z,40.63
2018-06-04T07:19:30.422Z,41.97
2018-06-04T07:21:59.349Z,40.97
2018-06-04T07:24:28.203Z,39.47
2018-06-04T07:26:57.068Z,41.27
2018-06-04T07:29:25.928Z,39.07
2018-06-04T07:31:54.792Z,39.87
2018-06-04T07:34:23.798Z,40.50
2018-06-04T07:36:52.631Z,39.47
2018-06-04T07:39:21.492Z,40.30
2018-06-04T07:41:50.489Z,41.00
2018-06-04T07:44:19.366Z,40.70
2018-06-04T07:46:48.210Z,38.23
2018-06-04T07:49:17.052Z,38.23
2018-06-04T07:51:45.939Z,39.60
2018-06-04T07:54:14.824Z,37.00
2018-06-04T07:56:43.755Z,37.53
2018-06-04T07:59:12.572Z,35.43
2018-06-04T08:01:41.410Z,35.83
2018-06-04T08:04:10.241Z,41.45
2018-06-04T08:06:39.150Z,35.87
2018-06-04T08:09:08.307Z,41.15
2018-06-04T08:11:37.168Z,36.40
2018-06-04T08:14:06.233Z,34.53
2018-06-04T08:16:35.223Z,35.13
2018-06-04T08:19:04.046Z,31.83
2018-06-04T08:21:33.007Z,33.57
2018-06-04T08:24:02.037Z,31.60
2018-06-04T08:26:31.270Z,32.87
2018-06-04T08:29:00.410Z,32.50
2018-06-04T08:31:29.279Z,33.03
2018-06-04T08:33:58.376Z,32.93
2018-06-04T08:36:30.474Z,32.07
2018-06-04T08:38:59.450Z,30.40
2018-06-04T08:41:28.336Z,30.37
2018-06-04T08:43:57.210Z,33.60
2018-06-04T08:46:28.052Z,29.30
2018-06-04T08:48:57.082Z,30.57
2018-06-04T08:51:28.895Z,30.20
2018-06-04T08:54:03.620Z,30.00
2018-06-04T08:56:38.034Z,30.77
2018-06-04T08:59:10.058Z,30.83
2018-06-04T09:01:39.131Z,32.40
2018-06-04T09:04:10.027Z,33.63
2018-06-04T09:06:40.728Z,32.57
2018-06-04T09:09:08.134Z,38.83
2018-06-04T09:11:37.224Z,38.78
2018-06-04T09:14:06.079Z,31.33
2018-06-04T09:16:35.169Z,30.60
2018-06-04T09:19:04.954Z,30.83
2018-06-04T09:21:33.835Z,30.23
2018-06-04T09:24:02.732Z,29.80
2018-06-04T09:26:31.825Z,28.90
2018-06-04T09:29:01.142Z,29.63
2018-06-04T09:31:30.024Z,30.80
2018-06-04T09:33:58.966Z,30.27
2018-06-04T09:36:27.952Z,29.37
2018-06-04T09:38:56.876Z,30.33
2018-06-04T09:41:25.739Z,30.33
2018-06-04T09:43:54.596Z,29.60
2018-06-04T09:46:23.442Z,34.65
2018-06-04T09:48:52.510Z,30.47
2018-06-04T09:51:21.416Z,29.60
2018-06-04T09:53:50.347Z,32.30
2018-06-04T09:56:19.415Z,29.40
2018-06-04T09:58:48.383Z,27.67
2018-06-04T10:01:17.337Z,28.20
2018-06-04T10:03:49.231Z,31.68
2018-06-04T10:06:18.068Z,27.23
2018-06-04T10:08:46.938Z,30.57
2018-06-04T10:11:16.210Z,28.70
2018-06-04T10:13:45.064Z,29.23
2018-06-04T10:16:13.933Z,26.23
2018-06-04T10:18:45.862Z,27.03
2018-06-04T10:40:11.801Z,26.37
2018-06-04T10:42:40.624Z,25.37
2018-06-04T10:45:09.521Z,24.47
2018-06-04T10:47:41.259Z,25.20
2018-06-04T10:50:10.429Z,25.23
2018-06-04T10:52:39.368Z,27.57
2018-06-04T10:55:08.210Z,27.63
2018-06-04T10:57:37.112Z,27.03
2018-06-04T11:00:05.990Z,27.37
2018-06-04T11:02:34.913Z,26.83
2018-06-04T11:05:03.714Z,25.47
2018-06-04T11:07:32.581Z,25.63
2018-06-04T11:10:02.905Z,25.43
2018-06-04T11:12:31.790Z,26.67
2018-06-04T11:15:00.824Z,26.47
2018-06-04T11:17:29.696Z,24.43
2018-06-04T11:19:58.551Z,25.17
2018-06-04T11:22:27.459Z,23.47
2018-06-04T11:24:56.346Z,24.00
2018-06-04T11:27:25.230Z,22.90
2018-06-04T11:29:54.236Z,22.87
2018-06-04T11:32:23.083Z,23.73
2018-06-04T11:34:51.919Z,23.03
2018-06-04T11:37:20.778Z,23.43
2018-06-04T11:39:49.621Z,24.00
2018-06-04T11:42:18.463Z,24.07
2018-06-04T11:44:47.327Z,21.80
2018-06-04T11:47:16.339Z,22.62
2018-06-04T11:49:45.226Z,21.12
2018-06-04T11:52:14.055Z,19.77
2018-06-04T11:54:42.878Z,20.97
2018-06-04T11:57:11.745Z,18.27
2018-06-04T11:59:40.587Z,17.15
2018-06-04T12:02:09.602Z,17.17
2018-06-04T12:04:38.711Z,18.55
2018-06-04T12:07:09.024Z,16.48
2018-06-04T12:09:38.038Z,15.35
2018-06-04T12:12:07.058Z,14.95
2018-06-04T12:14:36.343Z,14.10
2018-06-04T12:17:05.300Z,14.03
2018-06-04T12:19:34.494Z,14.60
2018-06-04T12:22:03.380Z,13.50
2018-06-04T12:24:32.276Z,14.38
2018-06-04T12:27:01.176Z,13.20
2018-06-04T12:29:30.286Z,12.68
2018-06-04T12:31:59.199Z,12.20
2018-06-04T12:34:28.066Z,12.35
2018-06-04T12:36:56.993Z,11.45
2018-06-04T12:39:25.820Z,11.85
2018-06-04T12:41:54.669Z,10.40
2018-06-04T12:44:23.501Z,10.38
2018-06-04T12:46:52.380Z,9.35
2018-06-04T12:49:21.224Z,9.48
2018-06-04T12:51:50.076Z,11.40
2018-06-04T12:54:19.157Z,10.82
2018-06-04T12:56:48.251Z,10.05
2018-06-04T12:59:17.117Z,8.10
2018-06-04T13:01:46.123Z,10.13
2018-06-04T13:04:15.030Z,9.68
2018-06-04T13:06:43.899Z,8.65
2018-06-04T13:09:12.934Z,7.95
2018-06-04T13:11:41.824Z,7.10
2018-06-04T13:14:10.791Z,7.85
2018-06-04T13:16:39.729Z,7.00
2018-06-04T13:19:08.574Z,7.50
2018-06-04T13:21:37.647Z,7.12
2018-06-04T13:24:06.531Z,6.33
2018-06-04T13:26:35.396Z,7.65
2018-06-04T13:29:04.285Z,7.83
2018-06-04T13:31:33.248Z,6.78
2018-06-04T13:34:02.189Z,6.40
2018-06-04T13:36:31.008Z,6.55
2018-06-04T13:38:59.864Z,5.70
2018-06-04T13:41:28.693Z,5.42
2018-06-04T13:43:57.536Z,6.50
2018-06-04T13:46:28.903Z,6.03
2018-06-04T13:48:57.752Z,6.15
2018-06-04T13:51:26.652Z,5.85
2018-06-04T13:53:55.576Z,6.17
2018-06-04T13:56:24.566Z,5.40
2018-06-04T13:58:53.505Z,5.45
2018-06-04T14:01:22.369Z,6.03
2018-06-04T14:03:51.293Z,5.75
2018-06-04T14:06:20.082Z,5.67
2018-06-04T14:08:48.985Z,5.03
2018-06-04T14:11:18.700Z,5.72
2018-06-04T14:13:47.500Z,5.80
2018-06-04T14:16:16.378Z,5.40
2018-06-04T14:18:45.203Z,5.30
2018-06-04T14:21:14.037Z,5.10
2018-06-04T14:23:42.882Z,5.67
2018-06-04T14:26:11.730Z,5.22
2018-06-04T14:28:40.567Z,4.83
2018-06-04T14:31:09.472Z,5.33
2018-06-04T14:33:38.384Z,5.05
2018-06-04T14:36:07.201Z,5.10
2018-06-04T14:38:36.088Z,4.80
2018-06-04T14:41:04.947Z,5.28
2018-06-04T14:43:33.821Z,5.78
2018-06-04T14:46:02.683Z,5.25
2018-06-04T14:48:31.946Z,5.20
2018-06-04T14:51:00.867Z,5.70
2018-06-04T14:53:29.929Z,5.83
2018-06-04T14:55:58.905Z,5.42
2018-06-04T14:58:27.816Z,5.20
2018-06-04T15:00:56.763Z,5.35
2018-06-04T15:03:25.739Z,5.70
2018-06-04T15:05:54.766Z,5.35
2018-06-04T15:08:23.744Z,5.70
2018-06-04T15:10:52.666Z,6.00
2018-06-04T15:13:21.619Z,5.45
2018-06-04T15:15:50.564Z,6.03
2018-06-04T15:18:19.558Z,6.03
2018-06-04T15:20:48.402Z,6.15
2018-06-04T15:23:17.273Z,6.90
2018-06-04T15:25:46.115Z,6.53
2018-06-04T15:28:14.938Z,5.97
2018-06-04T15:30:43.757Z,6.70
2018-06-04T15:33:12.649Z,7.20
2018-06-04T15:35:41.471Z,6.97
2018-06-04T15:38:10.315Z,7.05
2018-06-04T15:40:39.183Z,7.22
2018-06-04T15:43:08.021Z,7.70
2018-06-04T15:45:36.890Z,7.25
2018-06-04T15:48:05.736Z,7.30
2018-06-04T15:50:34.578Z,8.85
2018-06-04T15:53:03.414Z,7.87
2018-06-04T15:55:32.245Z,8.50
2018-06-04T15:58:01.103Z,7.92
2018-06-04T16:00:29.965Z,7.65
2018-06-04T16:02:58.801Z,7.62
2018-06-04T16:05:27.909Z,7.87
2018-06-04T16:07:57.023Z,7.65
2018-06-04T16:10:25.877Z,7.47
2018-06-04T16:12:54.736Z,7.33
2018-06-04T16:15:23.565Z,9.20
2018-06-04T16:17:52.409Z,8.48
2018-06-04T16:20:21.249Z,7.78
2018-06-04T16:22:50.084Z,8.20
2018-06-04T16:25:18.930Z,8.08
2018-06-04T16:27:47.804Z,7.40
2018-06-04T16:30:16.674Z,8.75
2018-06-04T16:32:45.542Z,8.85
2018-06-04T16:35:14.384Z,8.37
2018-06-04T16:37:43.260Z,9.40
2018-06-04T16:40:12.107Z,9.63
2018-06-04T16:42:40.956Z,10.20
2018-06-04T16:45:09.832Z,9.33
2018-06-04T16:47:38.650Z,9.70
2018-06-04T16:50:07.566Z,9.83
2018-06-04T16:52:36.384Z,10.37
2018-06-04T16:55:05.277Z,9.73
2018-06-04T16:57:34.083Z,10.27
2018-06-04T17:00:02.969Z,9.37
2018-06-04T17:02:31.816Z,9.30
2018-06-04T17:05:00.658Z,9.30
2018-06-04T17:07:29.530Z,10.43
2018-06-04T17:09:58.408Z,9.83
2018-06-04T17:12:27.315Z,10.27
2018-06-04T17:14:56.134Z,11.57
2018-06-04T17:17:24.993Z,10.80
2018-06-04T17:19:53.853Z,10.90
2018-06-04T17:22:22.728Z,11.20
2018-06-04T17:24:51.578Z,11.13
2018-06-04T17:27:20.452Z,9.90
2018-06-04T17:29:49.326Z,10.63
2018-06-04T17:32:18.170Z,11.75
2018-06-04T17:34:47.040Z,11.67
2018-06-04T17:37:15.918Z,10.80
2018-06-04T17:39:44.762Z,11.07
2018-06-04T17:42:13.592Z,10.03
2018-06-04T17:44:42.464Z,10.73
2018-06-04T17:47:11.296Z,13.35
2018-06-04T17:49:40.161Z,12.03
2018-06-04T17:52:09.006Z,12.87
2018-06-04T17:54:37.872Z,13.03
2018-06-04T17:57:06.707Z,13.23
2018-06-04T17:59:35.603Z,13.67
2018-06-04T18:02:04.468Z,14.10
2018-06-04T18:04:33.282Z,12.20
2018-06-04T18:07:02.149Z,14.23
2018-06-04T18:09:30.981Z,13.83
2018-06-04T18:11:59.843Z,13.10
2018-06-04T18:14:28.707Z,14.17
2018-06-04T18:16:57.554Z,12.40
2018-06-04T18:19:29.233Z,12.90
2018-06-04T18:21:58.099Z,14.33
2018-06-04T18:24:26.962Z,12.43
2018-06-04T18:26:55.839Z,12.07
2018-06-04T18:29:24.658Z,13.50
2018-06-04T18:31:53.628Z,12.70
2018-06-04T18:34:22.653Z,11.80
2018-06-04T18:36:51.533Z,11.70
2018-06-04T18:39:20.435Z,12.68
2018-06-04T18:41:49.274Z,11.30
2018-06-04T18:44:18.107Z,11.10
2018-06-04T18:46:46.944Z,10.90
2018-06-04T18:49:15.810Z,11.00
2018-06-04T18:51:44.634Z,10.13
2018-06-04T18:54:13.509Z,10.63
2018-06-04T18:56:42.332Z,10.90
2018-06-04T18:59:11.190Z,10.27
2018-06-04T19:01:40.024Z,10.93
2018-06-04T19:04:08.897Z,11.10
2018-06-04T19:06:37.788Z,10.73
2018-06-04T19:09:09.004Z,11.03
2018-06-04T19:11:38.158Z,11.00
2018-06-04T19:14:06.987Z,12.20
2018-06-04T19:16:35.837Z,10.40
2018-06-04T19:19:04.715Z,10.20
2018-06-04T19:21:33.584Z,10.80
2018-06-04T19:24:02.421Z,10.47
2018-06-04T19:26:31.274Z,11.23
2018-06-04T19:29:00.118Z,12.00
2018-06-04T19:31:28.977Z,12.70
2018-06-04T19:33:57.868Z,13.10
2018-06-04T19:36:26.709Z,13.13
2018-06-04T19:38:55.548Z,15.32
2018-06-04T19:41:24.415Z,12.53
2018-06-04T19:43:53.248Z,12.67
2018-06-04T19:46:23.685Z,11.43
2018-06-04T19:48:52.518Z,13.65
2018-06-04T19:51:21.392Z,13.07
2018-06-04T19:53:50.236Z,12.80
2018-06-04T19:56:19.091Z,13.93
2018-06-04T19:58:47.937Z,13.37
2018-06-04T20:01:16.775Z,13.57
2018-06-04T20:03:45.662Z,14.17
2018-06-04T20:06:14.502Z,14.40
2018-06-04T20:08:43.323Z,14.27
2018-06-04T20:11:12.153Z,14.67
2018-06-04T20:13:40.997Z,13.33
2018-06-04T20:16:09.835Z,14.73
2018-06-04T20:18:38.678Z,15.25
2018-06-04T20:21:07.514Z,15.37
2018-06-04T20:23:36.374Z,16.70
2018-06-04T20:26:05.245Z,15.83
2018-06-04T20:28:34.103Z,16.00
2018-06-04T20:31:02.956Z,16.13
2018-06-04T20:33:31.799Z,16.13
2018-06-04T20:36:00.624Z,16.53
2018-06-04T20:38:29.493Z,15.27
2018-06-04T20:40:58.347Z,16.23
2018-06-04T20:43:27.206Z,14.90
2018-06-04T20:45:56.041Z,17.17
2018-06-04T20:48:24.886Z,16.30
2018-06-04T20:50:53.737Z,15.40
2018-06-04T20:53:22.592Z,14.97
2018-06-04T20:55:51.459Z,15.63
2018-06-04T20:58:20.281Z,15.80
2018-06-04T21:00:49.150Z,16.43
2018-06-04T21:03:18.013Z,15.57
2018-06-04T21:05:46.851Z,17.27
2018-06-04T21:08:15.684Z,17.03
2018-06-04T21:10:44.548Z,17.47
2018-06-04T21:13:13.410Z,17.53
2018-06-04T21:15:42.271Z,19.82
2018-06-04T21:18:11.121Z,20.37
2018-06-04T21:20:39.976Z,17.57
2018-06-04T21:23:08.810Z,19.30
2018-06-04T21:25:37.656Z,18.87
2018-06-04T21:28:06.500Z,17.57
2018-06-04T21:30:35.332Z,21.93
2018-06-04T21:33:04.185Z,17.63
2018-06-04T21:35:33.019Z,19.40
2018-06-04T21:38:01.864Z,19.33
2018-06-04T21:40:30.705Z,18.33
2018-06-04T21:42:59.563Z,20.30
2018-06-04T21:45:28.405Z,20.03
2018-06-04T21:47:57.271Z,19.27
2018-06-04T21:50:26.088Z,19.60
2018-06-04T21:52:54.947Z,19.23
2018-06-04T21:55:23.793Z,18.90
2018-06-04T21:57:52.643Z,20.10
2018-06-04T22:00:21.495Z,22.63
2018-06-04T22:02:50.309Z,21.10
2018-06-04T22:05:19.159Z,20.23
2018-06-04T22:07:48.004Z,22.98
2018-06-04T22:10:16.838Z,24.20
2018-06-04T22:12:45.690Z,22.20
2018-06-04T22:15:14.549Z,23.10
2018-06-04T22:17:43.391Z,23.53
2018-06-04T22:20:12.229Z,26.62
2018-06-04T22:22:41.107Z,22.30
2018-06-04T22:25:09.939Z,24.00
2018-06-04T22:27:38.801Z,23.87
2018-06-04T22:30:07.641Z,24.20
2018-06-04T22:32:36.497Z,27.77
2018-06-04T22:35:05.532Z,24.37
2018-06-04T22:37:34.395Z,24.70
2018-06-04T22:40:03.269Z,25.50
2018-06-04T22:42:32.100Z,25.97
2018-06-04T22:45:00.948Z,25.87
2018-06-04T22:47:29.789Z,24.03
2018-06-04T22:49:58.639Z,29.23
2018-06-04T22:52:27.523Z,26.47
2018-06-04T22:54:56.431Z,24.60
2018-06-04T22:57:25.277Z,27.13
2018-06-04T22:59:54.113Z,27.40
2018-06-04T23:02:22.987Z,26.60
2018-06-04T23:04:51.896Z,27.37
2018-06-04T23:07:20.737Z,27.83
2018-06-04T23:09:49.581Z,27.83
2018-06-04T23:12:18.417Z,27.70
2018-06-04T23:14:47.237Z,27.57
2018-06-04T23:17:16.105Z,25.90
2018-06-04T23:19:44.921Z,26.37
2018-06-04T23:22:13.788Z,30.17
2018-06-04T23:24:42.650Z,26.43
2018-06-04T23:27:11.491Z,25.47
2018-06-04T23:29:40.338Z,23.27
2018-06-04T23:32:09.168Z,24.40
2018-06-04T23:34:38.034Z,24.30
2018-06-04T23:37:06.856Z,24.40
2018-06-04T23:39:35.715Z,24.20
2018-06-04T23:42:04.543Z,25.17
2018-06-04T23:44:33.394Z,26.47
2018-06-04T23:47:02.208Z,27.10
2018-06-04T23:49:31.109Z,35.52
2018-06-04T23:51:59.991Z,30.93
2018-06-04T23:54:28.866Z,30.80
2018-06-04T23:56:57.774Z,30.60
2018-06-04T23:59:26.626Z,29.83
